M I D A S
Marine Information and Data Acquisition System
Tripno 1036 of the Zeeleeuw from 2006-02-24 09:06:28 to 2006-02-24 12:00:59
Back to CruiseResearch ActivitiesStationsMapUnderway DataData graphs

EquipmentUnitsComment
TimeDGPSUTC
LatitudeDGPSDM.mWGS84
LongitudeDGPSDM.mWGS84
HeadingGyrodeg 
SOGDGPSknotsSpeed over ground
COGDGPSdegCourse over ground
DepthEcho soundermeters200 kHz
Missing or incorrect values are displayed as -999
Navigation data collected by the RV Zeeleeuw from 2006-02-24 07:40:43 to 2006-02-24 12:14:37
                                                                                    Next 1000 lines
Time Latitude Longitude Heading SOG COG Depth
2006-02-24 07:40:53 51°13.597 2°56.094 115.8 0.7 280 8
2006-02-24 07:40:58 51°13.597 2°56.092 115.6 0.9 280 8
2006-02-24 07:41:03 51°13.598 2°56.089 115.8 1.2 290 8.4
2006-02-24 07:41:08 51°13.599 2°56.086 116.3 1.4 287 8.7
2006-02-24 07:41:13 51°13.6 2°56.083 117.2 1.6 292 9
2006-02-24 07:41:18 51°13.601 2°56.079 117.6 2 292 -999
2006-02-24 07:41:24 51°13.603 2°56.073 117.8 2.3 294 -999
2006-02-24 07:41:29 51°13.604 2°56.068 117.8 2.6 294 -999
2006-02-24 07:41:34 51°13.606 2°56.062 117.7 2.8 294 43.6
2006-02-24 07:41:39 51°13.608 2°56.055 117.5 3.1 294 -999
2006-02-24 07:41:44 51°13.61 2°56.048 117.6 3.4 295 -999
2006-02-24 07:41:48 51°13.611 2°56.042 118.2 3.6 294 -999
2006-02-24 07:41:54 51°13.614 2°56.033 118.3 3.9 295 -999
2006-02-24 07:41:59 51°13.616 2°56.024 118.5 4.1 295 -999
2006-02-24 07:42:04 51°13.619 2°56.015 118.5 4.3 295 -999
2006-02-24 07:42:08 51°13.621 2°56.008 118.5 4.5 295 -999
2006-02-24 07:42:14 51°13.624 2°55.997 118.4 4.6 295 -999
2006-02-24 07:42:19 51°13.627 2°55.987 118.4 4.8 294 -999
2006-02-24 07:42:24 51°13.63 2°55.977 118.8 4.9 295 -999
2006-02-24 07:42:29 51°13.632 2°55.967 119.2 5 294 -999
2006-02-24 07:42:34 51°13.635 2°55.957 119.5 5.1 295 -999
2006-02-24 07:42:39 51°13.639 2°55.947 119.5 5.1 295 -999
2006-02-24 07:42:44 51°13.641 2°55.936 119.6 5.2 295 -999
2006-02-24 07:42:49 51°13.644 2°55.926 119.6 5.3 295 -999
2006-02-24 07:42:54 51°13.648 2°55.915 119.6 5.3 295 -999
2006-02-24 07:42:59 51°13.651 2°55.904 119.3 5.4 295 -999
2006-02-24 07:43:04 51°13.654 2°55.893 118.9 5.4 295 -999
2006-02-24 07:43:08 51°13.657 2°55.884 118.5 5.5 295 -999
2006-02-24 07:43:14 51°13.661 2°55.87 118.1 5.5 295 -999
2006-02-24 07:43:19 51°13.664 2°55.859 117.5 5.5 295 -999
2006-02-24 07:43:24 51°13.667 2°55.848 117.2 5.4 294 -999
2006-02-24 07:43:29 51°13.67 2°55.838 116.8 5.2 294 -999
2006-02-24 07:43:34 51°13.673 2°55.828 116.3 5 294 -999
2006-02-24 07:43:39 51°13.675 2°55.819 115.6 4.7 293 -999
2006-02-24 07:43:44 51°13.678 2°55.81 114.7 4.5 293 -999
2006-02-24 07:43:48 51°13.68 2°55.803 114 4.3 293 -999
2006-02-24 07:43:54 51°13.682 2°55.793 113.2 4 293 4.9
2006-02-24 07:43:58 51°13.684 2°55.787 112.4 3.9 293 4.9
2006-02-24 07:44:03 51°13.686 2°55.779 111.5 3.7 292 5.4
2006-02-24 07:44:08 51°13.687 2°55.772 110.4 3.5 290 -999
2006-02-24 07:44:14 51°13.689 2°55.764 108.7 3.2 289 -999
2006-02-24 07:44:19 51°13.69 2°55.758 106.8 3 288 4.8
2006-02-24 07:44:24 51°13.692 2°55.753 104.9 2.7 289 5
2006-02-24 07:44:28 51°13.692 2°55.749 102.9 2.4 287 -999
2006-02-24 07:44:34 51°13.693 2°55.746 99.5 1.7 292 -999
2006-02-24 07:44:39 51°13.694 2°55.744 96.4 1 297 -999
2006-02-24 07:44:44 51°13.695 2°55.744 89.5 0.5 331 -999
2006-02-24 07:44:49 51°13.695 2°55.744 84.2 0.4 10 -999
2006-02-24 07:44:54 51°13.696 2°55.744 77.9 0.5 2 -999
2006-02-24 07:44:59 51°13.696 2°55.744 73.2 0.4 353 -999
2006-02-24 07:45:04 51°13.697 2°55.742 69 0.5 316 -999
2006-02-24 07:45:08 51°13.697 2°55.741 65.6 0.6 274 -999
2006-02-24 07:45:14 51°13.697 2°55.739 62.9 0.9 272 -999
2006-02-24 07:45:19 51°13.697 2°55.737 59.5 0.9 263 -999
2006-02-24 07:45:24 51°13.697 2°55.735 57.1 0.8 273 -999
2006-02-24 07:45:29 51°13.697 2°55.734 55.3 0.7 275 -999
2006-02-24 07:45:34 51°13.698 2°55.733 52.2 0.6 303 -999
2006-02-24 07:45:38 51°13.698 2°55.733 49.6 0.6 348 -999
2006-02-24 07:45:44 51°13.7 2°55.733 43.9 1 1 -999
2006-02-24 07:45:48 51°13.701 2°55.733 38.2 1.3 10 -999
2006-02-24 07:45:54 51°13.704 2°55.734 31.9 1.7 11 -999
2006-02-24 07:45:59 51°13.707 2°55.734 26.5 2 9 -999
2006-02-24 07:46:04 51°13.71 2°55.735 19.6 2.4 3 -999
2006-02-24 07:46:09 51°13.714 2°55.735 11.1 2.5 1 -999
2006-02-24 07:46:14 51°13.718 2°55.734 4.3 2.7 353 -999
2006-02-24 07:46:19 51°13.722 2°55.732 359.4 2.9 350 -999
2006-02-24 07:46:24 51°13.726 2°55.73 353.4 3 343 -999
2006-02-24 07:46:28 51°13.729 2°55.728 347.4 3.1 339 -999
2006-02-24 07:46:34 51°13.734 2°55.723 341.7 3.4 330 5.2
2006-02-24 07:46:38 51°13.737 2°55.719 337.7 3.6 326 5
2006-02-24 07:46:43 51°13.742 2°55.715 334.3 3.9 326 -999
2006-02-24 07:46:48 51°13.746 2°55.709 333.2 4.1 325 -999
2006-02-24 07:46:54 51°13.753 2°55.703 334.1 4.3 329 -999
2006-02-24 07:46:59 51°13.758 2°55.698 335.4 4.6 330 -999
2006-02-24 07:47:03 51°13.763 2°55.694 336.5 4.8 329 4.8
2006-02-24 07:47:08 51°13.769 2°55.688 336.5 5 328 4.9
2006-02-24 07:47:13 51°13.775 2°55.682 335.9 5.2 327 5
2006-02-24 07:47:18 51°13.781 2°55.675 334.8 5.4 327 5
2006-02-24 07:47:23 51°13.788 2°55.668 334.7 5.5 328 5
2006-02-24 07:47:28 51°13.795 2°55.662 335.7 5.7 329 31.1
2006-02-24 07:47:34 51°13.803 2°55.655 337.3 5.9 331 -999
2006-02-24 07:47:38 51°13.809 2°55.65 337.9 6 331 4.9
2006-02-24 07:47:43 51°13.817 2°55.643 338 6.1 332 5.2
2006-02-24 07:47:48 51°13.825 2°55.637 338.9 6.2 334 -999
2006-02-24 07:47:53 51°13.833 2°55.632 340.1 6.3 335 -999
2006-02-24 07:47:58 51°13.841 2°55.626 341 6.4 336 -999
2006-02-24 07:48:04 51°13.851 2°55.619 341 6.5 335 -999
2006-02-24 07:48:09 51°13.859 2°55.613 340.3 6.5 335 -999
2006-02-24 07:48:14 51°13.867 2°55.606 339.5 6.7 334 -999
2006-02-24 07:48:19 51°13.876 2°55.6 339.5 6.7 334 -999
2006-02-24 07:48:24 51°13.884 2°55.594 340.4 6.8 336 -999
2006-02-24 07:48:29 51°13.893 2°55.587 341.1 6.8 336 -999
2006-02-24 07:48:34 51°13.902 2°55.582 342 6.9 337 -999
2006-02-24 07:48:39 51°13.911 2°55.576 342.7 6.9 337 -999
2006-02-24 07:48:44 51°13.92 2°55.57 342.8 6.9 337 -999
2006-02-24 07:48:49 51°13.929 2°55.564 342.5 7 337 -999
2006-02-24 07:48:54 51°13.938 2°55.558 342.2 7 337 12.5
2006-02-24 07:48:58 51°13.945 2°55.553 342.2 7 338 12.4
2006-02-24 07:49:04 51°13.955 2°55.546 342.2 7 337 -999
2006-02-24 07:49:08 51°13.963 2°55.541 342.3 7.1 338 -999
2006-02-24 07:49:14 51°13.974 2°55.534 342.1 7.2 337 -999
2006-02-24 07:49:19 51°13.983 2°55.527 342.1 7.3 338 -999
2006-02-24 07:49:24 51°13.992 2°55.521 342.3 7.4 337 -999
2006-02-24 07:49:29 51°14.002 2°55.514 342.2 7.4 337 -999
2006-02-24 07:49:34 51°14.012 2°55.508 342 7.5 336 -999
2006-02-24 07:49:39 51°14.021 2°55.501 341.8 7.6 336 -999
2006-02-24 07:49:44 51°14.031 2°55.494 341.4 7.6 336 -999
2006-02-24 07:49:48 51°14.039 2°55.488 341.1 7.7 336 -999
2006-02-24 07:49:54 51°14.05 2°55.48 340.9 7.7 335 -999
2006-02-24 07:49:59 51°14.06 2°55.473 341.7 7.8 336 -999
2006-02-24 07:50:04 51°14.07 2°55.466 342 7.8 336 -999
2006-02-24 07:50:09 51°14.08 2°55.459 341.7 7.9 336 -999
2006-02-24 07:50:14 51°14.09 2°55.452 341.5 7.9 336 -999
2006-02-24 07:50:18 51°14.098 2°55.446 341.5 7.9 336 -999
2006-02-24 07:50:24 51°14.11 2°55.437 341.1 7.9 335 -999
2006-02-24 07:50:29 51°14.12 2°55.429 340.5 7.9 335 -999
2006-02-24 07:50:34 51°14.13 2°55.421 339.5 8 333 -999
2006-02-24 07:50:39 51°14.14 2°55.413 338.7 8 333 -999
2006-02-24 07:50:44 51°14.15 2°55.405 338 7.9 332 -999
2006-02-24 07:50:48 51°14.157 2°55.398 337 7.9 331 -999
2006-02-24 07:50:54 51°14.169 2°55.387 335.4 7.9 329 -999
2006-02-24 07:50:59 51°14.178 2°55.378 333.8 7.9 328 5
2006-02-24 07:51:04 51°14.187 2°55.368 332.3 7.9 326 -999
2006-02-24 07:51:09 51°14.196 2°55.358 331 7.9 325 -999
2006-02-24 07:51:14 51°14.204 2°55.347 329.4 7.9 323 -999
2006-02-24 07:51:19 51°14.213 2°55.336 327.4 7.9 321 -999
2006-02-24 07:51:24 51°14.221 2°55.324 325.9 8 320 -999
2006-02-24 07:51:28 51°14.228 2°55.315 324.4 8 319 -999
2006-02-24 07:51:34 51°14.237 2°55.3 322.3 7.9 317 -999
2006-02-24 07:51:39 51°14.245 2°55.288 320.8 7.9 314 -999
2006-02-24 07:51:44 51°14.253 2°55.275 319.7 8 314 -999
2006-02-24 07:51:48 51°14.258 2°55.264 318.3 8 312 -999
2006-02-24 07:51:54 51°14.267 2°55.248 317.1 8 311 -999
2006-02-24 07:51:59 51°14.274 2°55.235 316.7 8 311 12.2
2006-02-24 07:52:03 51°14.28 2°55.224 316.3 8 310 12
2006-02-24 07:52:08 51°14.287 2°55.21 315.8 8 309 -999
2006-02-24 07:52:14 51°14.295 2°55.194 315.1 8 309 12.6
2006-02-24 07:52:18 51°14.301 2°55.183 314.7 8 308 12.4
2006-02-24 07:52:23 51°14.308 2°55.169 314.7 8 308 12.2
2006-02-24 07:52:28 51°14.315 2°55.155 314.5 8 308 12.6
2006-02-24 07:52:33 51°14.321 2°55.141 314.1 8 307 12
2006-02-24 07:52:38 51°14.328 2°55.127 313.7 8.1 307 -999
2006-02-24 07:52:43 51°14.335 2°55.112 313.4 8 306 12.1
2006-02-24 07:52:48 51°14.341 2°55.098 312.8 8 306 -999
2006-02-24 07:52:54 51°14.349 2°55.08 312 8 305 12.6
2006-02-24 07:52:59 51°14.356 2°55.066 312.1 8.1 307 12.3
2006-02-24 07:53:03 51°14.361 2°55.054 312.1 8.1 306 12.6
2006-02-24 07:53:08 51°14.368 2°55.04 312.7 8.3 308 11.5
2006-02-24 07:53:13 51°14.375 2°55.026 313 8.4 308 11.5
2006-02-24 07:53:18 51°14.382 2°55.011 312.9 8.6 309 11.4
2006-02-24 07:53:23 51°14.39 2°54.996 311.5 8.7 307 11.4
2006-02-24 07:53:28 51°14.397 2°54.98 309.1 8.8 306 11.4
2006-02-24 07:53:33 51°14.404 2°54.964 306 8.8 302 12.1
2006-02-24 07:53:38 51°14.409 2°54.946 302.3 8.8 299 11.5
2006-02-24 07:53:44 51°14.415 2°54.925 296.8 8.9 294 -999
2006-02-24 07:53:48 51°14.418 2°54.909 291.9 9 290 -999
2006-02-24 07:53:53 51°14.421 2°54.89 289.1 9.1 288 11.4
2006-02-24 07:53:58 51°14.425 2°54.869 285.9 9.3 283 11.4
2006-02-24 07:54:03 51°14.426 2°54.848 283.1 9.6 279 11.4
2006-02-24 07:54:08 51°14.428 2°54.827 280.3 9.9 279 11.8
2006-02-24 07:54:13 51°14.429 2°54.804 277.9 10.1 276 11.5
2006-02-24 07:54:18 51°14.43 2°54.781 276.4 10.5 275 11.5
2006-02-24 07:54:23 51°14.432 2°54.757 277.3 10.8 276 11.5
2006-02-24 07:54:28 51°14.434 2°54.732 277.7 11.1 276 11.6
2006-02-24 07:54:33 51°14.435 2°54.707 276.9 11.4 274 11.5
2006-02-24 07:54:38 51°14.435 2°54.681 275.5 11.6 272 11.6
2006-02-24 07:54:43 51°14.435 2°54.655 274 11.7 271 11.9
2006-02-24 07:54:48 51°14.435 2°54.629 272.9 11.9 267 11.9
2006-02-24 07:54:53 51°14.433 2°54.602 270.7 11.9 268 11.6
2006-02-24 07:54:58 51°14.431 2°54.576 268 11.9 263 11.9
2006-02-24 07:55:03 51°14.428 2°54.55 263.5 12 258 11.8
2006-02-24 07:55:08 51°14.423 2°54.525 260.5 12 256 11.3
2006-02-24 07:55:13 51°14.42 2°54.499 260 11.9 257 11.4
2006-02-24 07:55:18 51°14.415 2°54.474 259.1 11.8 256 11.9
2006-02-24 07:55:23 51°14.41 2°54.449 256.3 11.9 253 11.3
2006-02-24 07:55:28 51°14.403 2°54.425 255.2 11.9 250 11.4
2006-02-24 07:55:33 51°14.398 2°54.4 251.7 12 248 11.2
2006-02-24 07:55:38 51°14.39 2°54.376 250.5 12.1 245 11.3
2006-02-24 07:55:43 51°14.384 2°54.351 248.8 12.1 243 11.1
2006-02-24 07:55:48 51°14.375 2°54.328 248.2 12.1 242 11
2006-02-24 07:55:53 51°14.368 2°54.304 246.5 12.1 242 11.2
2006-02-24 07:55:58 51°14.358 2°54.282 243.5 12.2 236 10.9
2006-02-24 07:56:03 51°14.35 2°54.258 242.1 12.2 237 11.2
2006-02-24 07:56:08 51°14.34 2°54.237 241.9 12.1 234 10.9
2006-02-24 07:56:13 51°14.331 2°54.214 240.9 12.2 239 11
2006-02-24 07:56:18 51°14.322 2°54.191 240.9 12.2 237 10.9
2006-02-24 07:56:23 51°14.313 2°54.168 241.7 12.2 239 10.8
2006-02-24 07:56:28 51°14.304 2°54.145 241.6 12.3 238 11.1
2006-02-24 07:56:33 51°14.295 2°54.122 242.7 12.2 239 10.8
2006-02-24 07:56:38 51°14.287 2°54.099 243.8 12.1 241 10.8
2006-02-24 07:56:43 51°14.279 2°54.075 244.1 12.1 240 10.9
2006-02-24 07:56:48 51°14.271 2°54.051 244.7 12.2 242 10.8
2006-02-24 07:56:53 51°14.263 2°54.028 245.8 12 242 10.9
2006-02-24 07:56:58 51°14.254 2°54.006 244.7 12 238 10.8
2006-02-24 07:57:03 51°14.246 2°53.982 243.6 12.1 242 10.9
2006-02-24 07:57:08 51°14.237 2°53.96 244.8 12 238 10.8
2006-02-24 07:57:13 51°14.229 2°53.936 242.9 12.2 241 10.8
2006-02-24 07:57:18 51°14.22 2°53.913 244.5 12.1 240 10.8
2006-02-24 07:57:23 51°14.213 2°53.889 244.8 12 244 10.8
2006-02-24 07:57:28 51°14.205 2°53.866 245.3 12 240 10.8
2006-02-24 07:57:33 51°14.197 2°53.843 245.2 12.1 242 10.9
2006-02-24 07:57:38 51°14.188 2°53.82 243.6 12 238 10.9
2006-02-24 07:57:43 51°14.179 2°53.798 244.2 12 240 10.9
2006-02-24 07:57:48 51°14.172 2°53.774 243.1 12 239 11
2006-02-24 07:57:53 51°14.162 2°53.752 243.4 12.1 238 10.9
2006-02-24 07:57:58 51°14.154 2°53.728 242.8 12.2 240 10.9
2006-02-24 07:58:03 51°14.145 2°53.706 243.3 12.2 241 10.9
2006-02-24 07:58:08 51°14.137 2°53.682 242.9 12.2 239 10.9
2006-02-24 07:58:13 51°14.128 2°53.659 243.8 12.2 240 11
2006-02-24 07:58:18 51°14.12 2°53.636 243.7 12.2 238 11
2006-02-24 07:58:23 51°14.11 2°53.613 243.4 12.2 238 10.9
2006-02-24 07:58:28 51°14.103 2°53.59 242.9 12.1 239 11.1
2006-02-24 07:58:33 51°14.093 2°53.569 242.9 12 240 10.9
2006-02-24 07:58:38 51°14.085 2°53.544 240.8 12.2 237 11
2006-02-24 07:58:43 51°14.075 2°53.523 242.8 12.2 242 11
2006-02-24 07:58:48 51°14.067 2°53.499 242.3 12.1 238 11
2006-02-24 07:58:53 51°14.058 2°53.477 242.4 12.1 239 11.1
2006-02-24 07:58:58 51°14.049 2°53.453 242.7 12.2 239 11.1
2006-02-24 07:59:03 51°14.04 2°53.43 243.1 12.2 239 11.1
2006-02-24 07:59:08 51°14.032 2°53.407 243.6 12.2 240 11.1
2006-02-24 07:59:13 51°14.024 2°53.384 244.2 12.2 240 11.1
2006-02-24 07:59:18 51°14.016 2°53.359 244 12.2 241 11.2
2006-02-24 07:59:24 51°14.006 2°53.332 245.6 12 239 11.2
2006-02-24 07:59:28 51°13.999 2°53.313 244.5 12.2 240 11.2
2006-02-24 07:59:33 51°13.991 2°53.29 244 12.2 240 11.2
2006-02-24 07:59:38 51°13.982 2°53.267 243.8 12.1 238 11.2
2006-02-24 07:59:43 51°13.973 2°53.244 242.4 12.2 240 11.3
2006-02-24 07:59:48 51°13.964 2°53.222 243.5 12.1 239 11.3
2006-02-24 07:59:53 51°13.956 2°53.198 242.6 12.3 239 11.3
2006-02-24 07:59:58 51°13.947 2°53.174 243.5 12.3 240 11.3
2006-02-24 08:00:03 51°13.939 2°53.151 244.4 12.2 240 11.4
2006-02-24 08:00:08 51°13.93 2°53.127 243.5 12.2 239 11.4
2006-02-24 08:00:14 51°13.92 2°53.099 243.7 12.4 241 11.4
2006-02-24 08:00:18 51°13.914 2°53.08 244.5 12.3 241 11.4
2006-02-24 08:00:23 51°13.905 2°53.057 245.1 12.1 241 11.5
2006-02-24 08:00:28 51°13.896 2°53.033 243.3 12.4 238 11.5
2006-02-24 08:00:33 51°13.889 2°53.009 244.7 12.3 243 11.5
2006-02-24 08:00:38 51°13.88 2°52.986 244.9 12.1 238 11.5
2006-02-24 08:00:43 51°13.871 2°52.963 243.7 12.2 241 11.5
2006-02-24 08:00:48 51°13.863 2°52.939 243.7 12.3 239 11.6
2006-02-24 08:00:53 51°13.855 2°52.916 244.5 12.3 243 11.7
2006-02-24 08:00:58 51°13.846 2°52.893 245.3 12.1 239 11.7
2006-02-24 08:01:03 51°13.838 2°52.869 243.8 12.4 240 11.6
2006-02-24 08:01:08 51°13.831 2°52.844 245.1 12.3 244 11.7
2006-02-24 08:01:13 51°13.821 2°52.822 246.1 12.1 240 11.7
2006-02-24 08:01:18 51°13.814 2°52.797 243.9 12.2 238 11.7
2006-02-24 08:01:24 51°13.803 2°52.77 245.3 12.2 239 11.7
2006-02-24 08:01:28 51°13.797 2°52.751 244.9 12.2 242 11.7
2006-02-24 08:01:33 51°13.788 2°52.728 244.3 12.2 242 11.7
2006-02-24 08:01:38 51°13.781 2°52.704 244.6 12.2 241 11.8
2006-02-24 08:01:43 51°13.771 2°52.681 244 12.3 238 11.7
2006-02-24 08:01:48 51°13.764 2°52.656 244.5 12.4 244 11.9
2006-02-24 08:01:53 51°13.754 2°52.634 244.6 12.2 239 11.8
2006-02-24 08:01:58 51°13.747 2°52.609 243.6 12.3 239 11.8
2006-02-24 08:02:03 51°13.738 2°52.586 245.4 12.3 240 11.8
2006-02-24 08:02:08 51°13.73 2°52.562 245.1 12.2 242 11.8
2006-02-24 08:02:14 51°13.72 2°52.533 245 12.3 239 11.8
2006-02-24 08:02:18 51°13.713 2°52.514 245.2 12.4 243 11.8
2006-02-24 08:02:23 51°13.705 2°52.491 244.5 12.4 238 11.8
2006-02-24 08:02:28 51°13.697 2°52.467 244 12.4 242 11.9
2006-02-24 08:02:33 51°13.688 2°52.443 244.8 12.4 241 11.9
2006-02-24 08:02:38 51°13.68 2°52.419 245.3 12.4 242 11.9
2006-02-24 08:02:43 51°13.673 2°52.394 246.2 12.3 243 11.9
2006-02-24 08:02:48 51°13.665 2°52.371 247.2 12.2 243 11.9
2006-02-24 08:02:53 51°13.656 2°52.347 246.6 12.2 243 12
2006-02-24 08:02:58 51°13.648 2°52.323 244.9 12.3 240 12
2006-02-24 08:03:03 51°13.639 2°52.3 245.2 12.2 242 12
2006-02-24 08:03:08 51°13.63 2°52.277 243.7 12.2 236 12
2006-02-24 08:03:13 51°13.622 2°52.253 243.1 12.4 241 12
2006-02-24 08:03:18 51°13.613 2°52.23 243.4 12.3 239 12
2006-02-24 08:03:23 51°13.604 2°52.207 243.8 12.3 240 12
2006-02-24 08:03:28 51°13.596 2°52.183 243.8 12.3 241 12.1
2006-02-24 08:03:33 51°13.587 2°52.16 243.7 12.4 237 12.1
2006-02-24 08:03:38 51°13.58 2°52.135 245.3 12.3 245 12.2
2006-02-24 08:03:43 51°13.57 2°52.113 243.9 12.3 235 12
2006-02-24 08:03:48 51°13.562 2°52.089 243.4 12.3 243 12.2
2006-02-24 08:03:53 51°13.552 2°52.067 243.8 12.1 237 12.1
2006-02-24 08:03:58 51°13.545 2°52.043 242.2 12.2 237 12
2006-02-24 08:04:03 51°13.535 2°52.021 243.7 12.2 236 12.1
2006-02-24 08:04:08 51°13.526 2°51.998 242.3 12.2 239 12.2
2006-02-24 08:04:13 51°13.518 2°51.975 242.5 12.2 239 12.2
2006-02-24 08:04:18 51°13.509 2°51.951 243.8 12.2 240 12.1
2006-02-24 08:04:23 51°13.501 2°51.927 244.3 12.3 240 12.1
2006-02-24 08:04:28 51°13.492 2°51.904 244.4 12.3 239 12.1
2006-02-24 08:04:33 51°13.484 2°51.88 244.5 12.3 243 12.2
2006-02-24 08:04:38 51°13.475 2°51.857 245.4 12.2 243 12.2
2006-02-24 08:04:43 51°13.467 2°51.833 244.5 12.3 241 12.2
2006-02-24 08:04:48 51°13.459 2°51.81 245.7 12.1 241 12.2
2006-02-24 08:04:54 51°13.448 2°51.782 244.2 12.3 239 12.2
2006-02-24 08:04:58 51°13.442 2°51.763 243.4 12.3 241 12.2
2006-02-24 08:05:03 51°13.433 2°51.741 244.6 12 239 12.2
2006-02-24 08:05:08 51°13.424 2°51.717 242.7 12.2 238 12.2
2006-02-24 08:05:13 51°13.416 2°51.694 243.1 12.2 240 12.2
2006-02-24 08:05:18 51°13.407 2°51.671 244.3 12.2 239 12.2
2006-02-24 08:05:24 51°13.396 2°51.644 243.4 12.1 238 12.2
2006-02-24 08:05:28 51°13.389 2°51.625 242.9 12.2 239 12.2
2006-02-24 08:05:33 51°13.381 2°51.602 243.7 12.2 239 12.2
2006-02-24 08:05:38 51°13.373 2°51.579 244 12.2 239 12.2
2006-02-24 08:05:43 51°13.365 2°51.556 245.3 12.1 242 12.3
2006-02-24 08:05:48 51°13.355 2°51.533 244.4 12.2 237 12.2
2006-02-24 08:05:53 51°13.348 2°51.509 243.9 12.3 241 12.2
2006-02-24 08:05:58 51°13.338 2°51.487 244.7 12 241 12.2
2006-02-24 08:06:03 51°13.33 2°51.463 241.8 12.4 238 12.2
2006-02-24 08:06:08 51°13.321 2°51.44 243.9 12.3 241 12.2
2006-02-24 08:06:13 51°13.312 2°51.417 243.4 12.3 237 12.2
2006-02-24 08:06:18 51°13.303 2°51.394 243.1 12.3 240 12.3
2006-02-24 08:06:23 51°13.294 2°51.37 242.8 12.5 238 12.2
2006-02-24 08:06:28 51°13.286 2°51.346 243.3 12.5 241 12.3
2006-02-24 08:06:33 51°13.277 2°51.323 245.1 12.2 239 12.2
2006-02-24 08:06:38 51°13.269 2°51.299 243.9 12.2 240 12.3
2006-02-24 08:06:43 51°13.26 2°51.276 243.6 12.3 238 12.2
2006-02-24 08:06:48 51°13.251 2°51.253 243.4 12.4 240 12.2
2006-02-24 08:06:53 51°13.243 2°51.229 243.8 12.2 240 12.4
2006-02-24 08:06:58 51°13.234 2°51.206 244.5 12.2 242 12.3
2006-02-24 08:07:03 51°13.226 2°51.182 243.8 12.4 239 12.3
2006-02-24 08:07:08 51°13.217 2°51.159 245.6 12.2 242 12.4
2006-02-24 08:07:13 51°13.209 2°51.135 243.8 12.4 240 12.3
2006-02-24 08:07:18 51°13.2 2°51.112 244.8 12.4 241 12.4
2006-02-24 08:07:23 51°13.192 2°51.088 243.9 12.2 239 12.4
2006-02-24 08:07:28 51°13.183 2°51.065 243.1 12.3 239 12.4
2006-02-24 08:07:33 51°13.175 2°51.042 244.3 12.2 241 12.4
2006-02-24 08:07:38 51°13.166 2°51.018 244.8 12.2 241 12.4
2006-02-24 08:07:43 51°13.157 2°50.995 244.4 12.2 239 12.4
2006-02-24 08:07:48 51°13.149 2°50.972 243.2 12.2 239 12.4
2006-02-24 08:07:53 51°13.14 2°50.949 243.2 12.2 239 12.4
2006-02-24 08:07:58 51°13.132 2°50.925 243.4 12.3 239 12.4
2006-02-24 08:08:03 51°13.123 2°50.902 244.5 12.3 241 12.4
2006-02-24 08:08:08 51°13.115 2°50.879 244.4 12.3 239 12.5
2006-02-24 08:08:13 51°13.106 2°50.856 243.5 12.2 239 12.5
2006-02-24 08:08:18 51°13.096 2°50.833 242 12.2 237 12.4
2006-02-24 08:08:23 51°13.088 2°50.809 242.6 12.2 240 12.4
2006-02-24 08:08:28 51°13.079 2°50.787 243.6 12.1 238 12.4
2006-02-24 08:08:33 51°13.071 2°50.763 242.7 12.2 238 12.4
2006-02-24 08:08:38 51°13.062 2°50.74 243.9 12.2 240 12.4
2006-02-24 08:08:43 51°13.053 2°50.717 242.7 12.3 237 12.4
2006-02-24 08:08:48 51°13.044 2°50.694 243.1 12.3 241 12.4
2006-02-24 08:08:53 51°13.036 2°50.67 242.2 12.4 239 12.4
2006-02-24 08:08:58 51°13.027 2°50.647 243.1 12.5 239 12.5
2006-02-24 08:09:03 51°13.019 2°50.623 245.2 12.4 239 12.5
2006-02-24 08:09:08 51°13.01 2°50.6 244.2 12.3 238 12.5
2006-02-24 08:09:13 51°13.003 2°50.575 245.9 12.2 245 12.5
2006-02-24 08:09:18 51°12.993 2°50.553 245.3 12.2 236 12.5
2006-02-24 08:09:23 51°12.985 2°50.529 243.8 12.4 241 12.5
2006-02-24 08:09:28 51°12.976 2°50.507 243.6 12.2 237 12.5
2006-02-24 08:09:33 51°12.967 2°50.484 241.2 12.2 236 12.5
2006-02-24 08:09:38 51°12.959 2°50.46 242.7 12.4 241 12.5
2006-02-24 08:09:43 51°12.95 2°50.436 244.4 12.2 240 12.5
2006-02-24 08:09:48 51°12.942 2°50.413 244.3 12.2 240 12.5
2006-02-24 08:09:53 51°12.934 2°50.389 245.3 12.2 242 12.6
2006-02-24 08:09:58 51°12.925 2°50.366 245.2 12.3 239 12.8
2006-02-24 08:10:03 51°12.917 2°50.342 244.1 12.4 243 12.6
2006-02-24 08:10:08 51°12.908 2°50.319 245.1 12.2 239 12.6
2006-02-24 08:10:13 51°12.9 2°50.295 243.9 12.4 241 12.5
2006-02-24 08:10:18 51°12.892 2°50.271 244.7 12.4 241 12.6
2006-02-24 08:10:23 51°12.884 2°50.247 245.5 12.3 242 12.6
2006-02-24 08:10:28 51°12.875 2°50.223 245.3 12.4 241 12.6
2006-02-24 08:10:33 51°12.868 2°50.199 245.6 12.1 242 12.7
2006-02-24 08:10:38 51°12.858 2°50.177 245.7 12.2 238 12.6
2006-02-24 08:10:43 51°12.851 2°50.152 244.1 12.4 244 12.6
2006-02-24 08:10:48 51°12.842 2°50.13 245.8 12.3 239 12.7
2006-02-24 08:10:54 51°12.832 2°50.1 244.4 12.3 242 12.6
2006-02-24 08:10:58 51°12.826 2°50.081 245.3 12.4 242 12.6
2006-02-24 08:11:03 51°12.818 2°50.056 247.1 12.4 244 12.6
2006-02-24 08:11:08 51°12.811 2°50.031 247.3 12.4 243 12.6
2006-02-24 08:11:13 51°12.803 2°50.008 248.9 12.3 245 12.7
2006-02-24 08:11:18 51°12.796 2°49.983 247.2 12.4 242 12.7
2006-02-24 08:11:23 51°12.788 2°49.959 247.3 12.3 245 12.7
2006-02-24 08:11:28 51°12.78 2°49.935 247.4 12.2 242 12.7
2006-02-24 08:11:33 51°12.772 2°49.911 247.4 12.1 245 12.8
2006-02-24 08:11:38 51°12.764 2°49.887 245.5 12.3 240 12.8
2006-02-24 08:11:43 51°12.756 2°49.864 245.4 12.2 242 12.9
2006-02-24 08:11:48 51°12.747 2°49.841 244.7 12.1 237 12.8
2006-02-24 08:11:53 51°12.739 2°49.817 243.1 12.4 242 12.7
2006-02-24 08:11:58 51°12.731 2°49.794 245.2 12.3 241 12.9
2006-02-24 08:12:03 51°12.722 2°49.77 245.3 12.2 240 12.8
2006-02-24 08:12:08 51°12.715 2°49.746 244.8 12.3 242 12.8
2006-02-24 08:12:13 51°12.707 2°49.722 245.9 12.2 242 12.9
2006-02-24 08:12:18 51°12.699 2°49.698 246.4 12.3 242 12.9
2006-02-24 08:12:23 51°12.692 2°49.674 248 12.3 245 12.9
2006-02-24 08:12:28 51°12.683 2°49.65 247.5 12.4 241 12.9
2006-02-24 08:12:33 51°12.677 2°49.625 248.4 12.3 247 12.9
2006-02-24 08:12:38 51°12.668 2°49.601 247.2 12.4 240 12.9
2006-02-24 08:12:43 51°12.661 2°49.576 248 12.4 247 12.9
2006-02-24 08:12:48 51°12.653 2°49.552 247.8 12.3 242 12.9
2006-02-24 08:12:53 51°12.646 2°49.527 248.3 12.4 246 12.9
2006-02-24 08:12:58 51°12.639 2°49.502 249.4 12.3 245 13
2006-02-24 08:13:03 51°12.632 2°49.478 249.8 12.2 245 13.1
2006-02-24 08:13:08 51°12.624 2°49.454 247.5 12.2 243 13
2006-02-24 08:13:14 51°12.614 2°49.425 247 12.2 243 13.1
2006-02-24 08:13:18 51°12.608 2°49.407 246 12.2 241 13
2006-02-24 08:13:23 51°12.6 2°49.382 245.4 12.3 241 13
2006-02-24 08:13:28 51°12.592 2°49.359 245.6 12.1 242 13.1
2006-02-24 08:13:33 51°12.582 2°49.336 244.7 12.2 239 13
2006-02-24 08:13:38 51°12.575 2°49.312 245.2 12.2 244 13.1
2006-02-24 08:13:43 51°12.566 2°49.289 244.1 12.1 236 13.1
2006-02-24 08:13:48 51°12.558 2°49.265 245.3 12.1 244 13.1
2006-02-24 08:13:53 51°12.549 2°49.243 245.3 12.1 239 13.1
2006-02-24 08:13:58 51°12.542 2°49.219 244.1 12.1 238 13.1
2006-02-24 08:14:03 51°12.532 2°49.196 244.5 12.1 238 13
2006-02-24 08:14:08 51°12.525 2°49.172 243.3 12.3 241 13.1
2006-02-24 08:14:13 51°12.516 2°49.15 245.3 12.1 242 13.1
2006-02-24 08:14:18 51°12.508 2°49.126 243.9 12.2 241 13
2006-02-24 08:14:23 51°12.5 2°49.101 244.6 12.3 243 13.1
2006-02-24 08:14:28 51°12.492 2°49.078 248 12 244 13.1
2006-02-24 08:14:33 51°12.484 2°49.054 245.7 12 241 13.1
2006-02-24 08:14:38 51°12.477 2°49.03 245.9 12.2 243 13.1
2006-02-24 08:14:43 51°12.469 2°49.007 248.3 11.9 242 13.1
2006-02-24 08:14:48 51°12.462 2°48.983 245.4 12.1 240 13.1
2006-02-24 08:14:53 51°12.453 2°48.96 246.5 12.1 244 13.2
2006-02-24 08:14:58 51°12.444 2°48.936 245.3 12.2 238 13.1
2006-02-24 08:15:03 51°12.438 2°48.912 244.8 12.2 245 13.1
2006-02-24 08:15:08 51°12.429 2°48.889 245.3 12.3 239 13.1
2006-02-24 08:15:12 51°12.424 2°48.869 245.7 12.2 244 13.1
2006-02-24 08:15:18 51°12.414 2°48.84 246.9 12.3 241 13.1
2006-02-24 08:15:23 51°12.407 2°48.816 248.3 12.1 245 13.2
2006-02-24 08:15:28 51°12.399 2°48.792 246 12.3 239 13.2
2006-02-24 08:15:33 51°12.391 2°48.768 247.5 12.3 247 13.1
2006-02-24 08:15:38 51°12.384 2°48.744 246.7 12.3 241 13.1
2006-02-24 08:15:43 51°12.375 2°48.72 247.6 12.2 246 13.2
2006-02-24 08:15:48 51°12.368 2°48.696 245.9 12.4 241 13.2
2006-02-24 08:15:53 51°12.36 2°48.672 246.7 12.3 245 13.3
2006-02-24 08:15:58 51°12.352 2°48.647 246.7 12.3 241 13.3
2006-02-24 08:16:03 51°12.345 2°48.623 247.5 12.3 246 13.3
2006-02-24 08:16:08 51°12.337 2°48.599 247.6 12.2 241 13.3
2006-02-24 08:16:13 51°12.329 2°48.575 246.2 12.2 243 13.3
2006-02-24 08:16:18 51°12.321 2°48.552 245.4 12.3 241 13.3
2006-02-24 08:16:23 51°12.314 2°48.528 246.9 12 245 13.4
2006-02-24 08:16:28 51°12.305 2°48.505 245.5 12.1 238 13.4
2006-02-24 08:16:33 51°12.297 2°48.482 244.5 12.1 244 13.4
2006-02-24 08:16:38 51°12.289 2°48.458 246.7 12 242 13.3
2006-02-24 08:16:43 51°12.281 2°48.435 244.7 12.3 240 13.4
2006-02-24 08:16:48 51°12.273 2°48.411 245.6 12.2 244 13.4
2006-02-24 08:16:53 51°12.266 2°48.387 245.3 12.1 241 13.4
2006-02-24 08:16:58 51°12.258 2°48.364 246.5 12.1 243 13.4
2006-02-24 08:17:03 51°12.251 2°48.339 247 12.1 244 13.3
2006-02-24 08:17:08 51°12.242 2°48.316 246.5 12.1 242 13.3
2006-02-24 08:17:13 51°12.234 2°48.292 246.2 12.2 242 13.4
2006-02-24 08:17:18 51°12.226 2°48.269 244.8 12.2 240 13.4
2006-02-24 08:17:23 51°12.218 2°48.245 245.1 12.2 243 13.4
2006-02-24 08:17:28 51°12.21 2°48.221 246.5 12.3 242 13.4
2006-02-24 08:17:34 51°12.2 2°48.192 245.8 12.3 242 13.4
2006-02-24 08:17:38 51°12.194 2°48.172 245.8 12.4 243 13.3
2006-02-24 08:17:43 51°12.188 2°48.148 247.9 12.2 246 13.4
2006-02-24 08:17:48 51°12.179 2°48.124 249.2 12 243 13.4
2006-02-24 08:17:53 51°12.172 2°48.099 246.1 12.4 242 13.4
2006-02-24 08:17:58 51°12.164 2°48.076 248.8 12.1 245 13.4
2006-02-24 08:18:03 51°12.156 2°48.051 246 12.3 240 13.4
2006-02-24 08:18:08 51°12.15 2°48.027 247.2 12.3 247 13.5
2006-02-24 08:18:13 51°12.141 2°48.004 247.2 12 241 13.5
2006-02-24 08:18:18 51°12.134 2°47.979 246.2 12.4 243 13.5
2006-02-24 08:18:23 51°12.127 2°47.954 248.4 12.2 247 13.5
2006-02-24 08:18:28 51°12.119 2°47.931 247.5 12.1 241 13.5
2006-02-24 08:18:33 51°12.112 2°47.907 247.1 12.1 243 13.5
2006-02-24 08:18:38 51°12.103 2°47.883 246.4 12.4 239 13.5
2006-02-24 08:18:43 51°12.096 2°47.859 246.4 12.2 246 13.5
2006-02-24 08:18:48 51°12.087 2°47.836 245.3 12.1 238 13.4
2006-02-24 08:18:53 51°12.08 2°47.811 244.7 12.3 243 13.5
2006-02-24 08:18:58 51°12.071 2°47.788 246.5 12 240 13.5
2006-02-24 08:19:03 51°12.064 2°47.764 245.7 12.2 242 13.4
2006-02-24 08:19:08 51°12.055 2°47.741 245.3 12.4 241 13.5
2006-02-24 08:19:13 51°12.047 2°47.717 245 12.3 242 13.4
2006-02-24 08:19:18 51°12.039 2°47.692 245.5 12.2 242 13.4
2006-02-24 08:19:23 51°12.031 2°47.668 245.9 12.5 241 13.5
2006-02-24 08:19:28 51°12.024 2°47.643 247.9 12.3 246 13.5
2006-02-24 08:19:33 51°12.016 2°47.619 246.8 12.4 241 13.5
2006-02-24 08:19:38 51°12.009 2°47.594 247.9 12.4 247 13.5
2006-02-24 08:19:43 51°12.002 2°47.57 248.9 12.1 244 13.5
2006-02-24 08:19:48 51°11.994 2°47.546 247.3 12.3 242 13.5
2006-02-24 08:19:53 51°11.986 2°47.522 246.7 12.4 243 13.5
2006-02-24 08:19:58 51°11.979 2°47.498 246 12.3 243 13.5
2006-02-24 08:20:03 51°11.971 2°47.474 246.9 12.1 244 13.5
2006-02-24 08:20:08 51°11.963 2°47.45 246.4 12.3 242 13.5
2006-02-24 08:20:13 51°11.956 2°47.425 246.5 12.4 245 13.5
2006-02-24 08:20:18 51°11.948 2°47.401 248.2 12.1 244 13.6
2006-02-24 08:20:23 51°11.94 2°47.377 246 12.1 241 13.5
2006-02-24 08:20:28 51°11.932 2°47.352 245.7 12.4 243 13.6
2006-02-24 08:20:33 51°11.925 2°47.329 247 12.1 244 13.5
2006-02-24 08:20:38 51°11.916 2°47.306 246.1 12.1 239 13.5
2006-02-24 08:20:43 51°11.908 2°47.281 244.2 12.4 242 13.5
2006-02-24 08:20:48 51°11.9 2°47.257 244.5 12.5 241 13.5
2006-02-24 08:20:53 51°11.893 2°47.233 246.9 12.1 245 13.5
2006-02-24 08:20:58 51°11.884 2°47.209 246.3 12.1 242 13.4
2006-02-24 08:21:03 51°11.877 2°47.184 245.5 12.4 241 13.4
2006-02-24 08:21:08 51°11.869 2°47.161 246.2 12.4 241 13.3
2006-02-24 08:21:13 51°11.862 2°47.136 246 12.3 245 13.4
2006-02-24 08:21:18 51°11.853 2°47.112 246.3 12.3 241 13.4
2006-02-24 08:21:23 51°11.846 2°47.088 246.1 12.5 244 13.3
2006-02-24 08:21:28 51°11.838 2°47.063 247.5 12.2 245 13.4
2006-02-24 08:21:33 51°11.831 2°47.039 246.7 12.2 242 13.4
2006-02-24 08:21:38 51°11.823 2°47.014 246.2 12.4 245 13.4
2006-02-24 08:21:43 51°11.815 2°46.991 247.3 12.2 242 13.4
2006-02-24 08:21:48 51°11.808 2°46.966 246 12.3 242 13.4
2006-02-24 08:21:53 51°11.8 2°46.943 246.1 12.2 243 13.3
2006-02-24 08:21:58 51°11.792 2°46.919 245.8 12.2 241 13.3
2006-02-24 08:22:03 51°11.784 2°46.895 245.2 12.3 242 13.4
2006-02-24 08:22:08 51°11.776 2°46.871 245.1 12.3 242 13.4
2006-02-24 08:22:13 51°11.768 2°46.847 245.4 12.4 243 13.4
2006-02-24 08:22:18 51°11.76 2°46.823 246.6 12.3 243 13.4
2006-02-24 08:22:23 51°11.753 2°46.799 246.6 12.2 243 13.4
2006-02-24 08:22:28 51°11.746 2°46.774 247.5 12.2 245 13.3
2006-02-24 08:22:33 51°11.737 2°46.75 246.5 12.3 241 13.4
2006-02-24 08:22:38 51°11.729 2°46.727 246 12.3 242 13.4
2006-02-24 08:22:43 51°11.721 2°46.702 244.4 12.5 242 13.4
2006-02-24 08:22:48 51°11.714 2°46.678 246 12.4 244 13.4
2006-02-24 08:22:54 51°11.704 2°46.649 246.7 12.3 243 13.4
2006-02-24 08:22:58 51°11.699 2°46.629 246.5 12.3 245 13.4
2006-02-24 08:23:03 51°11.691 2°46.605 246.7 12.3 241 13.5
2006-02-24 08:23:08 51°11.683 2°46.581 247.9 12.2 245 13.3
2006-02-24 08:23:13 51°11.676 2°46.557 246 12.2 242 13.3
2006-02-24 08:23:18 51°11.668 2°46.533 246.5 12.1 244 13.4
2006-02-24 08:23:23 51°11.66 2°46.509 245.7 12.2 243 13.4
2006-02-24 08:23:28 51°11.652 2°46.485 246.7 12.2 245 13.4
2006-02-24 08:23:34 51°11.643 2°46.456 245 12.2 239 13.5
2006-02-24 08:23:38 51°11.637 2°46.437 245.6 12.2 243 13.4
2006-02-24 08:23:43 51°11.629 2°46.413 245.4 12.3 241 13.5
2006-02-24 08:23:48 51°11.621 2°46.39 246 12.2 243 13.5
2006-02-24 08:23:53 51°11.613 2°46.366 244.6 12.3 240 13.5
2006-02-24 08:23:58 51°11.604 2°46.342 244.2 12.6 241 13.4
2006-02-24 08:24:03 51°11.597 2°46.317 245.1 12.4 244 13.5
2006-02-24 08:24:08 51°11.588 2°46.293 245.3 12.4 241 13.5
2006-02-24 08:24:13 51°11.581 2°46.267 246.5 12.5 246 13.4
2006-02-24 08:24:18 51°11.574 2°46.243 247 12.5 245 13.5
2006-02-24 08:24:23 51°11.566 2°46.218 247.4 12.4 245 13.4
2006-02-24 08:24:28 51°11.559 2°46.193 248.2 12.4 246 13.4
2006-02-24 08:24:33 51°11.552 2°46.169 248.2 12.4 245 13.3
2006-02-24 08:24:38 51°11.545 2°46.144 248.3 12.4 246 13.4
2006-02-24 08:24:43 51°11.536 2°46.12 246.7 12.4 241 13.3
2006-02-24 08:24:48 51°11.529 2°46.095 246 12.4 246 13.3
2006-02-24 08:24:53 51°11.52 2°46.071 247.2 12.4 243 13.2
2006-02-24 08:24:58 51°11.514 2°46.046 246.1 12.4 246 13.3
2006-02-24 08:25:03 51°11.505 2°46.023 247.4 12.3 244 13.2
2006-02-24 08:25:08 51°11.499 2°45.996 245.3 12.5 245 13.2
2006-02-24 08:25:13 51°11.49 2°45.973 248.4 12.4 247 13.2
2006-02-24 08:25:18 51°11.484 2°45.947 247.2 12.4 244 13.1
2006-02-24 08:25:23 51°11.476 2°45.923 247.8 12.4 246 13.2
2006-02-24 08:25:28 51°11.469 2°45.898 248.1 12.3 244 13.1
2006-02-24 08:25:33 51°11.462 2°45.873 247.5 12.4 245 13.1
2006-02-24 08:25:38 51°11.453 2°45.849 246.8 12.4 241 13.1
2006-02-24 08:25:43 51°11.446 2°45.824 244.8 12.5 244 13.2
2006-02-24 08:25:48 51°11.438 2°45.8 246.2 12.5 243 13.1
2006-02-24 08:25:53 51°11.431 2°45.775 246 12.5 245 13.1
2006-02-24 08:25:58 51°11.423 2°45.751 246.8 12.4 245 13.2
2006-02-24 08:26:03 51°11.415 2°45.726 246.5 12.4 244 13.1
2006-02-24 08:26:08 51°11.407 2°45.701 246.2 12.6 243 13.1
2006-02-24 08:26:13 51°11.4 2°45.676 246.4 12.7 243 13.2
2006-02-24 08:26:18 51°11.391 2°45.653 246.9 12.3 240 13.1
2006-02-24 08:26:23 51°11.385 2°45.627 245.5 12.5 242 13
2006-02-24 08:26:28 51°11.377 2°45.603 248 12.5 245 13
2006-02-24 08:26:33 51°11.37 2°45.578 247.7 12.4 243 13
2006-02-24 08:26:38 51°11.361 2°45.554 246.2 12.4 242 13.1
2006-02-24 08:26:43 51°11.353 2°45.53 246.7 12.3 243 13
2006-02-24 08:26:48 51°11.346 2°45.505 244.6 12.6 240 13
2006-02-24 08:26:52 51°11.34 2°45.485 247.9 12.2 243 13
2006-02-24 08:26:58 51°11.331 2°45.456 245.9 12.2 241 13
2006-02-24 08:27:03 51°11.322 2°45.432 246.1 12.4 244 12.9
2006-02-24 08:27:08 51°11.315 2°45.408 245.5 12.3 241 13
2006-02-24 08:27:13 51°11.306 2°45.384 244.2 12.4 242 12.9
2006-02-24 08:27:18 51°11.299 2°45.359 245.3 12.6 241 12.9
2006-02-24 08:27:23 51°11.291 2°45.335 246.3 12.3 242 12.9
2006-02-24 08:27:28 51°11.284 2°45.31 245.4 12.4 244 12.9
2006-02-24 08:27:33 51°11.276 2°45.286 246.3 12.4 243 12.9
2006-02-24 08:27:38 51°11.269 2°45.262 247.4 12.2 245 12.8
2006-02-24 08:27:43 51°11.261 2°45.237 246.8 12.4 243 12.8
2006-02-24 08:27:48 51°11.253 2°45.213 246.5 12.3 244 12.8
2006-02-24 08:27:53 51°11.245 2°45.189 245.5 12.3 243 12.8
2006-02-24 08:27:58 51°11.238 2°45.165 245.1 12.3 244 12.8
2006-02-24 08:28:03 51°11.23 2°45.14 245.3 12.4 242 12.8
2006-02-24 08:28:08 51°11.223 2°45.116 246.6 12.2 245 12.8
2006-02-24 08:28:13 51°11.214 2°45.092 246 12.4 241 12.7
2006-02-24 08:28:18 51°11.207 2°45.068 245.7 12.4 244 12.7
2006-02-24 08:28:23 51°11.199 2°45.044 245.7 12.2 242 12.7
2006-02-24 08:28:28 51°11.191 2°45.02 244.6 12.4 242 12.6
2006-02-24 08:28:33 51°11.184 2°44.994 246.7 12.5 247 12.6
2006-02-24 08:28:38 51°11.176 2°44.97 248.6 12.3 244 12.6
2006-02-24 08:28:43 51°11.17 2°44.945 246.7 12.4 247 12.6
2006-02-24 08:28:48 51°11.162 2°44.92 247.1 12.5 245 12.6
2006-02-24 08:28:53 51°11.156 2°44.894 248 12.6 247 12.5
2006-02-24 08:28:58 51°11.15 2°44.869 250.5 12.5 249 12.6
2006-02-24 08:29:04 51°11.141 2°44.838 249.7 12.5 245 12.6
2006-02-24 08:29:08 51°11.137 2°44.817 249.5 12.7 249 12.6
2006-02-24 08:29:13 51°11.131 2°44.792 252.3 12.3 250 12.6
2006-02-24 08:29:18 51°11.125 2°44.766 252.4 12.4 249 12.6
2006-02-24 08:29:23 51°11.12 2°44.74 251.4 12.4 250 12.7
2006-02-24 08:29:28 51°11.111 2°44.716 251.8 12.4 246 12.5
2006-02-24 08:29:33 51°11.107 2°44.689 250.4 12.4 251 12.5
2006-02-24 08:29:38 51°11.099 2°44.665 250.7 12.3 245 12.6
2006-02-24 08:29:43 51°11.093 2°44.639 249.7 12.3 249 12.6
2006-02-24 08:29:48 51°11.087 2°44.613 249.8 12.3 249 12.6
2006-02-24 08:29:53 51°11.08 2°44.588 251.1 12.4 247 12.6
2006-02-24 08:29:58 51°11.075 2°44.562 252.1 12.4 249 12.6
2006-02-24 08:30:03 51°11.068 2°44.538 251 12.3 246 12.7
2006-02-24 08:30:08 51°11.061 2°44.513 251 12.3 248 12.6
2006-02-24 08:30:13 51°11.056 2°44.486 250.3 12.7 249 12.5
2006-02-24 08:30:18 51°11.05 2°44.461 252.9 12.6 250 12.7
2006-02-24 08:30:23 51°11.041 2°44.437 250.4 12.5 241 12.5
2006-02-24 08:30:28 51°11.037 2°44.41 249.8 12.6 254 12.5
2006-02-24 08:30:33 51°11.029 2°44.386 252.2 12.3 244 12.5
2006-02-24 08:30:38 51°11.023 2°44.36 249.3 12.5 247 12.5
2006-02-24 08:30:43 51°11.018 2°44.334 250.4 12.5 249 12.6
2006-02-24 08:30:48 51°11.01 2°44.309 251.1 12.4 246 12.6
2006-02-24 08:30:53 51°11.004 2°44.283 249 12.5 244 12.5
2006-02-24 08:30:58 51°10.997 2°44.257 251.1 12.6 251 12.6
2006-02-24 08:31:03 51°10.991 2°44.231 250.7 12.6 248 12.6
2006-02-24 08:31:08 51°10.985 2°44.205 250.3 12.5 250 12.5
2006-02-24 08:31:13 51°10.979 2°44.179 250.8 12.6 249 12.5
2006-02-24 08:31:18 51°10.973 2°44.154 250.7 12.5 248 12.6
2006-02-24 08:31:23 51°10.965 2°44.129 250.6 12.4 247 12.5
2006-02-24 08:31:28 51°10.959 2°44.103 248.3 12.5 246 12.5
2006-02-24 08:31:32 51°10.953 2°44.083 249.9 12.5 248 12.4
2006-02-24 08:31:38 51°10.947 2°44.052 249.5 12.3 247 12.5
2006-02-24 08:31:43 51°10.938 2°44.028 249.9 12.2 246 12.4
2006-02-24 08:31:48 51°10.933 2°44.002 247.9 12.5 247 12.4
2006-02-24 08:31:53 51°10.924 2°43.978 249.1 12.6 241 12.3
2006-02-24 08:31:58 51°10.919 2°43.952 248.2 12.6 240 12.4
2006-02-24 08:32:03 51°10.909 2°43.929 247.9 12.4 239 12.4
2006-02-24 08:32:08 51°10.905 2°43.902 247.8 12.5 251 12.3
2006-02-24 08:32:13 51°10.897 2°43.878 250.2 12.3 244 12.4
2006-02-24 08:32:18 51°10.892 2°43.853 249.5 12.2 247 12.4
2006-02-24 08:32:23 51°10.884 2°43.828 249.4 12.3 247 12.5
2006-02-24 08:32:28 51°10.878 2°43.803 249.6 12.3 249 12.5
2006-02-24 08:32:33 51°10.872 2°43.778 250.4 12.3 248 12.4
2006-02-24 08:32:38 51°10.865 2°43.753 249.7 12.3 246 12.5
2006-02-24 08:32:43 51°10.858 2°43.729 249.6 12.2 248 12.4
2006-02-24 08:32:48 51°10.851 2°43.703 246.9 12.6 244 12.4
2006-02-24 08:32:53 51°10.844 2°43.678 249.6 12.5 251 12.4
2006-02-24 08:32:58 51°10.837 2°43.653 247.3 12.4 245 12.4
2006-02-24 08:33:03 51°10.831 2°43.628 249.4 12.4 250 12.4
2006-02-24 08:33:08 51°10.824 2°43.603 250.4 12.4 245 12.4
2006-02-24 08:33:13 51°10.818 2°43.577 249.9 12.4 246 12.3
2006-02-24 08:33:18 51°10.811 2°43.552 250.8 12.3 248 12.4
2006-02-24 08:33:24 51°10.804 2°43.521 249 12.4 246 12.4
2006-02-24 08:33:28 51°10.799 2°43.501 250.4 12.4 250 12.3
2006-02-24 08:33:33 51°10.792 2°43.476 251.3 12.2 250 12.3
2006-02-24 08:33:38 51°10.787 2°43.451 250.2 12.2 247 12.3
2006-02-24 08:33:43 51°10.779 2°43.427 249.4 12.1 248 12.2
2006-02-24 08:33:48 51°10.773 2°43.402 248.1 12.2 246 12.3
2006-02-24 08:33:53 51°10.765 2°43.379 249 12 249 12.2
2006-02-24 08:33:58 51°10.758 2°43.353 247.2 12.2 243 12.2
2006-02-24 08:34:03 51°10.751 2°43.33 247.5 12.2 245 12.2
2006-02-24 08:34:08 51°10.743 2°43.305 246.2 12.3 242 12.2
2006-02-24 08:34:13 51°10.737 2°43.281 246.6 12.1 248 12.2
2006-02-24 08:34:18 51°10.729 2°43.257 247.6 12.3 244 12.1
2006-02-24 08:34:23 51°10.724 2°43.231 248.8 12.3 249 12.1
2006-02-24 08:34:28 51°10.716 2°43.207 248.9 12.2 244 12.1
2006-02-24 08:34:34 51°10.708 2°43.177 248.2 12.3 247 12.1
2006-02-24 08:34:38 51°10.702 2°43.156 248.1 12.4 246 12.1
2006-02-24 08:34:43 51°10.696 2°43.13 248.9 12.5 249 12.1
2006-02-24 08:34:48 51°10.689 2°43.105 248.9 12.5 245 12.1
2006-02-24 08:34:53 51°10.683 2°43.08 249.1 12.4 249 12.1
2006-02-24 08:34:58 51°10.676 2°43.054 249.7 12.6 246 12
2006-02-24 08:35:03 51°10.67 2°43.028 251.1 12.6 252 12
2006-02-24 08:35:08 51°10.663 2°43.002 250.2 12.7 245 12
2006-02-24 08:35:13 51°10.657 2°42.976 250.4 12.6 250 12
2006-02-24 08:35:18 51°10.649 2°42.952 250.2 12.3 248 12
2006-02-24 08:35:23 51°10.643 2°42.926 248 12.6 247 12
2006-02-24 08:35:28 51°10.636 2°42.901 249.7 12.4 247 12
2006-02-24 08:35:33 51°10.629 2°42.876 248.2 12.4 245 12
2006-02-24 08:35:38 51°10.623 2°42.851 248.6 12.5 248 12
2006-02-24 08:35:43 51°10.617 2°42.825 250.8 12.3 250 12.1
2006-02-24 08:35:48 51°10.61 2°42.8 250.3 12.2 247 12
2006-02-24 08:35:53 51°10.604 2°42.774 250.2 12.5 250 11.9
2006-02-24 08:35:58 51°10.599 2°42.749 251.1 12.4 249 12
2006-02-24 08:36:03 51°10.591 2°42.724 252 12.2 248 11.9
2006-02-24 08:36:08 51°10.586 2°42.699 251 12.2 249 12
2006-02-24 08:36:14 51°10.577 2°42.67 251.2 12.2 246 11.9
2006-02-24 08:36:18 51°10.573 2°42.649 248.5 12.3 249 11.9
2006-02-24 08:36:23 51°10.565 2°42.625 249.5 12.3 245 11.9
2006-02-24 08:36:28 51°10.56 2°42.599 248.9 12.4 249 11.9
2006-02-24 08:36:33 51°10.553 2°42.574 251.1 12.2 247 12
2006-02-24 08:36:38 51°10.547 2°42.549 251.1 12.2 249 12
2006-02-24 08:36:43 51°10.541 2°42.523 250 12.4 248 12
2006-02-24 08:36:48 51°10.535 2°42.498 251.4 12.1 250 12
2006-02-24 08:36:53 51°10.528 2°42.474 249.6 12.2 246 12
2006-02-24 08:36:58 51°10.522 2°42.449 249.4 12.2 250 11.9
2006-02-24 08:37:03 51°10.514 2°42.425 248.8 12.3 244 12
2006-02-24 08:37:08 51°10.508 2°42.399 249.1 12.2 250 12
2006-02-24 08:37:14 51°10.499 2°42.37 246.5 12.4 240 11.9
2006-02-24 08:37:18 51°10.494 2°42.35 246.9 12.4 249 11.9
2006-02-24 08:37:23 51°10.486 2°42.325 248.5 12.4 243 11.9
2006-02-24 08:37:28 51°10.48 2°42.299 249.2 12.5 251 11.8
2006-02-24 08:37:33 51°10.474 2°42.275 250.9 12.2 247 11.9
2006-02-24 08:37:38 51°10.467 2°42.25 248.9 12.1 247 11.9
2006-02-24 08:37:43 51°10.461 2°42.224 249.4 12.6 248 11.8
2006-02-24 08:37:48 51°10.454 2°42.199 251.1 12.3 250 11.9
2006-02-24 08:37:53 51°10.446 2°42.174 248.8 12.4 243 11.9
2006-02-24 08:37:58 51°10.44 2°42.149 248.8 12.3 250 11.9
2006-02-24 08:38:03 51°10.433 2°42.125 247.5 12.4 243 11.9
2006-02-24 08:38:08 51°10.427 2°42.099 248.6 12.4 250 11.9
2006-02-24 08:38:13 51°10.42 2°42.074 250.3 12.4 247 11.9
2006-02-24 08:38:18 51°10.414 2°42.049 249.6 12.3 250 11.9
2006-02-24 08:38:23 51°10.407 2°42.024 249.7 12.2 246 12
2006-02-24 08:38:28 51°10.402 2°41.999 250.4 12.1 251 11.9
2006-02-24 08:38:33 51°10.396 2°41.974 250.8 12.1 249 12
2006-02-24 08:38:38 51°10.389 2°41.949 250.7 12.2 249 11.9
2006-02-24 08:38:43 51°10.383 2°41.924 250.5 12.1 250 12
2006-02-24 08:38:48 51°10.376 2°41.9 248.5 12.2 243 11.9
2006-02-24 08:38:53 51°10.369 2°41.876 248.3 12.2 247 11.9
2006-02-24 08:38:58 51°10.361 2°41.851 247.4 12.3 243 11.9
2006-02-24 08:39:03 51°10.355 2°41.826 247 12.3 246 12
2006-02-24 08:39:08 51°10.348 2°41.802 248.6 12.2 246 11.9
2006-02-24 08:39:14 51°10.341 2°41.771 247.5 12.3 249 12
2006-02-24 08:39:18 51°10.335 2°41.752 251.1 12 250 11.9
2006-02-24 08:39:24 51°10.329 2°41.721 249.7 12.1 246 11.9
2006-02-24 08:39:28 51°10.323 2°41.702 250.8 12.2 251 12
2006-02-24 08:39:33 51°10.317 2°41.677 249.5 12.2 244 12
2006-02-24 08:39:38 51°10.311 2°41.652 248.5 12.1 250 12
2006-02-24 08:39:43 51°10.304 2°41.628 249.7 12 245 12
2006-02-24 08:39:48 51°10.298 2°41.604 249.6 11.9 249 12
2006-02-24 08:39:53 51°10.29 2°41.58 247.8 12 243 11.9
2006-02-24 08:39:58 51°10.283 2°41.556 247.6 12.1 247 11.9
2006-02-24 08:40:03 51°10.275 2°41.532 245.8 12.2 241 11.9
2006-02-24 08:40:08 51°10.268 2°41.508 245.7 12.1 245 12
2006-02-24 08:40:13 51°10.26 2°41.484 245.9 12.2 243 11.9
2006-02-24 08:40:18 51°10.254 2°41.458 245.8 12.4 245 11.9
2006-02-24 08:40:23 51°10.248 2°41.433 249 12.2 248 11.9
2006-02-24 08:40:28 51°10.241 2°41.408 249.9 12.2 248 11.9
2006-02-24 08:40:34 51°10.235 2°41.377 250.4 12.4 250 11.8
2006-02-24 08:40:38 51°10.231 2°41.357 253.4 12.2 253 11.9
2006-02-24 08:40:43 51°10.224 2°41.332 251.8 12.1 245 12
2006-02-24 08:40:48 51°10.218 2°41.307 250.8 12 252 12
2006-02-24 08:40:53 51°10.211 2°41.283 249.1 12.3 242 12
2006-02-24 08:40:58 51°10.206 2°41.258 251.1 12 255 12
2006-02-24 08:41:03 51°10.199 2°41.234 249.5 11.9 242 12
2006-02-24 08:41:08 51°10.193 2°41.209 248.3 12 248 12
2006-02-24 08:41:13 51°10.185 2°41.186 248.6 12 244 12
2006-02-24 08:41:18 51°10.178 2°41.162 246.9 11.9 244 12.1
2006-02-24 08:41:23 51°10.171 2°41.139 246.5 11.9 243 12.1
2006-02-24 08:41:28 51°10.164 2°41.115 244.9 11.9 244 12.1
2006-02-24 08:41:33 51°10.156 2°41.091 245.4 12.1 244 12
2006-02-24 08:41:38 51°10.149 2°41.067 247.6 12.1 247 11.9
2006-02-24 08:41:43 51°10.142 2°41.042 246.4 12.3 243 12
2006-02-24 08:41:48 51°10.136 2°41.017 249.1 12 252 12
2006-02-24 08:41:53 51°10.13 2°40.993 248.6 12.1 246 12
2006-02-24 08:41:58 51°10.123 2°40.968 249.5 12.2 249 12
2006-02-24 08:42:03 51°10.117 2°40.943 249.3 12.1 244 12.1
2006-02-24 08:42:08 51°10.11 2°40.919 249.7 11.9 250 12
2006-02-24 08:42:13 51°10.104 2°40.894 248.9 12 245 12
2006-02-24 08:42:18 51°10.098 2°40.869 250.4 12.1 252 12.1
2006-02-24 08:42:23 51°10.091 2°40.845 249.7 12.3 245 12
2006-02-24 08:42:28 51°10.086 2°40.819 250.8 12.2 254 12.1
2006-02-24 08:42:33 51°10.079 2°40.794 250.5 12.1 250 12
2006-02-24 08:42:38 51°10.074 2°40.768 250.4 12.4 253 12.1
2006-02-24 08:42:43 51°10.067 2°40.743 252.9 12.2 247 12
2006-02-24 08:42:48 51°10.063 2°40.717 250.4 12.4 250 12.1
2006-02-24 08:42:53 51°10.057 2°40.691 254 12.5 255 12
2006-02-24 08:42:58 51°10.052 2°40.665 253.2 12.3 251 12.1
2006-02-24 08:43:03 51°10.046 2°40.639 254.8 12.4 251 12.1
2006-02-24 08:43:08 51°10.041 2°40.613 252.6 12.6 250 12.1
2006-02-24 08:43:13 51°10.036 2°40.587 254.9 12.5 256 12.1
2006-02-24 08:43:18 51°10.031 2°40.561 254.5 12.3 252 12.2
2006-02-24 08:43:23 51°10.026 2°40.535 254.1 12.5 255 12.2
2006-02-24 08:43:28 51°10.021 2°40.509 254.6 12.3 253 12.2
2006-02-24 08:43:33 51°10.015 2°40.484 253.3 12.1 249 12.3
2006-02-24 08:43:38 51°10.009 2°40.46 251.7 12.1 249 12.3
2006-02-24 08:43:43 51°10.003 2°40.434 250.2 12.2 249 12.2
2006-02-24 08:43:48 51°9.996 2°40.409 249.1 12.4 246 12.2
2006-02-24 08:43:53 51°9.991 2°40.384 251.4 12.2 251 12.3
2006-02-24 08:43:58 51°9.984 2°40.359 250.7 12 247 12.3
2006-02-24 08:44:03 51°9.978 2°40.334 248.7 12.3 247 12.2
2006-02-24 08:44:08 51°9.972 2°40.309 251.5 12.2 250 12.3
2006-02-24 08:44:13 51°9.966 2°40.284 250.9 12.3 248 12.3
2006-02-24 08:44:18 51°9.96 2°40.258 252 12.2 252 12.3
2006-02-24 08:44:23 51°9.954 2°40.233 251.5 12.3 247 12.3
2006-02-24 08:44:28 51°9.948 2°40.207 251.5 12.3 250 12.3
2006-02-24 08:44:33 51°9.942 2°40.181 250.8 12.4 248 12.3
2006-02-24 08:44:38 51°9.936 2°40.156 251.9 12.5 249 12.3
2006-02-24 08:44:43 51°9.931 2°40.13 252.4 12.4 253 12.3
2006-02-24 08:44:48 51°9.926 2°40.104 253.5 12.3 252 12.3
2006-02-24 08:44:53 51°9.921 2°40.078 253.9 12.3 252 12.3
2006-02-24 08:44:58 51°9.916 2°40.052 256.2 12.2 254 12.3
2006-02-24 08:45:04 51°9.91 2°40.022 253.9 12 251 12.4
2006-02-24 08:45:08 51°9.904 2°40.002 252.9 12 253 12.4
2006-02-24 08:45:14 51°9.898 2°39.972 250.7 12.2 246 12.4
2006-02-24 08:45:18 51°9.893 2°39.952 252.3 12.1 251 12.4
2006-02-24 08:45:23 51°9.887 2°39.927 251.1 12.1 248 12.4
2006-02-24 08:45:28 51°9.88 2°39.903 249.8 12.1 248 12.4
2006-02-24 08:45:33 51°9.875 2°39.878 250.7 12 250 12.4
2006-02-24 08:45:38 51°9.869 2°39.853 251.3 12.1 250 12.4
2006-02-24 08:45:43 51°9.864 2°39.827 252.5 12.1 252 12.4
2006-02-24 08:45:48 51°9.857 2°39.803 252.5 12.1 249 12.3
2006-02-24 08:45:54 51°9.851 2°39.772 250.3 12.2 247 12.4
2006-02-24 08:45:58 51°9.846 2°39.753 252.2 12 250 12.4
2006-02-24 08:46:03 51°9.84 2°39.727 250.1 12.1 247 12.3
2006-02-24 08:46:08 51°9.834 2°39.702 251.8 12.2 251 12.3
2006-02-24 08:46:13 51°9.829 2°39.676 251.4 12.3 251 12.4
2006-02-24 08:46:18 51°9.823 2°39.651 252.8 12.3 253 12.4
2006-02-24 08:46:23 51°9.817 2°39.626 252.4 12.2 249 12.4
2006-02-24 08:46:28 51°9.811 2°39.6 251.8 12.2 249 12.4
2006-02-24 08:46:33 51°9.805 2°39.574 250.4 12.5 249 12.4
2006-02-24 08:46:38 51°9.8 2°39.549 253.1 12.5 254 12.5
2006-02-24 08:46:43 51°9.794 2°39.523 252 12.2 248 12.4
2006-02-24 08:46:48 51°9.79 2°39.497 251.6 12.3 250 12.5
2006-02-24 08:46:53 51°9.783 2°39.472 254.2 12.2 253 12.4
2006-02-24 08:46:58 51°9.778 2°39.446 251.4 12.3 251 12.4
2006-02-24 08:47:03 51°9.772 2°39.421 252.6 12.2 251 12.5
2006-02-24 08:47:08 51°9.766 2°39.396 252.1 12.2 249 12.5
2006-02-24 08:47:13 51°9.761 2°39.37 251.9 12.2 253 12.5
2006-02-24 08:47:18 51°9.755 2°39.345 252.4 12.3 249 12.5
2006-02-24 08:47:23 51°9.75 2°39.318 252.5 12.4 253 12.5
2006-02-24 08:47:28 51°9.744 2°39.292 252.5 12.5 250 12.5
2006-02-24 08:47:33 51°9.739 2°39.267 254.3 12.1 253 12.6
2006-02-24 08:47:38 51°9.732 2°39.241 251.2 12.6 246 12.5
2006-02-24 08:47:43 51°9.729 2°39.214 253.1 12.6 257 12.5
2006-02-24 08:47:48 51°9.722 2°39.189 253.3 12.2 248 12.6
2006-02-24 08:47:53 51°9.717 2°39.164 253 12.3 254 12.6
2006-02-24 08:47:58 51°9.712 2°39.138 254.5 12.1 252 12.7
2006-02-24 08:48:03 51°9.705 2°39.114 252.4 12.1 252 12.7
2006-02-24 08:48:08 51°9.7 2°39.088 250.1 12.2 250 12.7
2006-02-24 08:48:13 51°9.694 2°39.063 250.6 12.1 249 12.8
2006-02-24 08:48:18 51°9.687 2°39.039 249.7 12.2 247 12.7
2006-02-24 08:48:23 51°9.682 2°39.013 250.5 12.1 250 12.7
2006-02-24 08:48:28 51°9.674 2°38.989 249.8 12.1 245 12.7
2006-02-24 08:48:33 51°9.669 2°38.964 248.9 12.1 249 12.8
2006-02-24 08:48:38 51°9.661 2°38.94 249.5 12.1 245 12.7
2006-02-24 08:48:43 51°9.656 2°38.915 249.7 12.1 250 12.7
2006-02-24 08:48:48 51°9.649 2°38.891 249.4 12 246 12.8
2006-02-24 08:48:53 51°9.644 2°38.866 251 11.9 251 12.8
2006-02-24 08:48:58 51°9.637 2°38.841 249.6 11.9 247 12.8
2006-02-24 08:49:04 51°9.631 2°38.811 250.7 11.9 251 12.9
2006-02-24 08:49:08 51°9.625 2°38.792 251.4 11.9 249 12.8
2006-02-24 08:49:13 51°9.619 2°38.767 248.9 12.2 245 12.9
2006-02-24 08:49:18 51°9.613 2°38.742 251.8 12.1 250 12.9
2006-02-24 08:49:23 51°9.607 2°38.717 249.9 12.1 250 12.8
2006-02-24 08:49:28 51°9.602 2°38.692 252.1 12 252 12.9
2006-02-24 08:49:33 51°9.596 2°38.668 252.8 11.8 249 12.9
2006-02-24 08:49:38 51°9.59 2°38.643 250.6 12 248 12.8
2006-02-24 08:49:43 51°9.584 2°38.618 249.7 12.1 247 12.9
2006-02-24 08:49:48 51°9.576 2°38.594 249 12 245 12.9
2006-02-24 08:49:53 51°9.571 2°38.569 248.4 12.1 244 12.8
2006-02-24 08:49:58 51°9.564 2°38.544 249.3 12.2 248 12.9
2006-02-24 08:50:03 51°9.558 2°38.519 250.7 12.2 250 12.9
2006-02-24 08:50:08 51°9.552 2°38.493 250.4 12.4 249 12.9
2006-02-24 08:50:13 51°9.547 2°38.467 252 12.3 250 12.9
2006-02-24 08:50:18 51°9.541 2°38.442 252.1 12.3 248 12.9
2006-02-24 08:50:23 51°9.536 2°38.416 252.3 12.2 253 12.9
2006-02-24 08:50:28 51°9.53 2°38.39 252.7 12.4 249 12.9
2006-02-24 08:50:33 51°9.525 2°38.365 253.8 12.1 253 13
2006-02-24 08:50:38 51°9.518 2°38.34 252.1 12.3 246 13
2006-02-24 08:50:43 51°9.514 2°38.313 251.8 12.4 252 13
2006-02-24 08:50:48 51°9.507 2°38.289 252.4 12.3 247 12.9
2006-02-24 08:50:53 51°9.502 2°38.263 251.1 12.3 254 12.9
2006-02-24 08:50:58 51°9.495 2°38.238 251.1 12.3 246 13
2006-02-24 08:51:03 51°9.49 2°38.213 251.5 12.2 252 13
2006-02-24 08:51:08 51°9.483 2°38.189 250.7 12.3 246 12.9
2006-02-24 08:51:13 51°9.478 2°38.163 251.8 12.2 252 13
2006-02-24 08:51:18 51°9.47 2°38.138 250.4 12.2 249 12.9
2006-02-24 08:51:23 51°9.467 2°38.111 250.7 12.3 255 12.9
2006-02-24 08:51:28 51°9.461 2°38.087 252.7 12 249 13
2006-02-24 08:51:33 51°9.455 2°38.061 253.1 12.2 252 12.9
2006-02-24 08:51:38 51°9.451 2°38.035 253.8 12.2 252 13
2006-02-24 08:51:43 51°9.444 2°38.01 252.6 12.1 250 13
2006-02-24 08:51:48 51°9.438 2°37.985 251.6 12.4 251 13.1
2006-02-24 08:51:53 51°9.433 2°37.959 250.9 12.3 250 13.1
2006-02-24 08:51:58 51°9.427 2°37.933 252 12.3 252 13.1
2006-02-24 08:52:03 51°9.422 2°37.907 252.9 12.3 251 13.1
2006-02-24 08:52:08 51°9.417 2°37.882 254.1 12.1 253 13.1
2006-02-24 08:52:13 51°9.411 2°37.857 252.5 12.1 250 13.2
2006-02-24 08:52:18 51°9.406 2°37.831 252.5 12.2 253 13.1
2006-02-24 08:52:23 51°9.401 2°37.806 253.3 12.1 252 13.1
2006-02-24 08:52:28 51°9.395 2°37.78 251.8 12.1 249 13.2
2006-02-24 08:52:33 51°9.389 2°37.755 252.3 12.1 251 13.2
2006-02-24 08:52:39 51°9.382 2°37.725 250.8 12.3 249 13.2
2006-02-24 08:52:43 51°9.378 2°37.704 251.9 12.2 253 13.3
2006-02-24 08:52:48 51°9.371 2°37.68 252.5 12.2 250 13.2
2006-02-24 08:52:52 51°9.368 2°37.658 252.1 12.3 256 13.2
2006-02-24 08:52:58 51°9.36 2°37.628 253.3 12.2 248 13.2
2006-02-24 08:53:03 51°9.356 2°37.602 251.6 12.2 251 13.3
2006-02-24 08:53:08 51°9.349 2°37.576 252.3 12.4 248 13.3
2006-02-24 08:53:13 51°9.345 2°37.55 252.9 12.4 253 13.3
2006-02-24 08:53:18 51°9.338 2°37.526 252.9 12.2 248 13.4
2006-02-24 08:53:23 51°9.333 2°37.5 251.2 12.4 251 13.4
2006-02-24 08:53:28 51°9.328 2°37.473 252.3 12.3 252 13.4
2006-02-24 08:53:33 51°9.322 2°37.448 253.2 12.1 252 13.4
2006-02-24 08:53:38 51°9.317 2°37.422 253 12.3 251 13.5
2006-02-24 08:53:43 51°9.312 2°37.397 253.8 12.1 252 13.5
2006-02-24 08:53:48 51°9.306 2°37.371 253.3 12.2 250 13.4
2006-02-24 08:53:53 51°9.301 2°37.345 250.8 12.4 249 13.5
2006-02-24 08:53:58 51°9.295 2°37.32 252 12.3 253 13.5
2006-02-24 08:54:04 51°9.289 2°37.288 252.5 12.4 253 13.5
2006-02-24 08:54:08 51°9.285 2°37.268 252.8 12.4 251 13.6
2006-02-24 08:54:13 51°9.279 2°37.243 255 12.2 253 13.5
2006-02-24 08:54:18 51°9.274 2°37.217 251.9 12.4 248 13.6
2006-02-24 08:54:23 51°9.268 2°37.191 253.4 12.4 255 13.6
2006-02-24 08:54:28 51°9.264 2°37.165 253.6 12.1 253 13.7
2006-02-24 08:54:33 51°9.258 2°37.14 253.3 12.1 253 13.7
2006-02-24 08:54:38 51°9.253 2°37.114 253.2 12.2 252 13.7
2006-02-24 08:54:43 51°9.248 2°37.089 253.3 12.1 254 13.8
2006-02-24 08:54:48 51°9.242 2°37.064 251.9 12 248 13.8
2006-02-24 08:54:53 51°9.236 2°37.039 251.6 12.1 249 13.9
2006-02-24 08:54:58 51°9.231 2°37.014 252 12 251 13.9
2006-02-24 08:55:03 51°9.225 2°36.989 250.8 12.1 248 13.9
2006-02-24 08:55:08 51°9.22 2°36.963 251.6 12.2 253 14
2006-02-24 08:55:13 51°9.214 2°36.939 252.3 12.1 247 13.9
2006-02-24 08:55:18 51°9.209 2°36.913 250.7 12.2 247 14
2006-02-24 08:55:24 51°9.201 2°36.884 253.4 12 250 14
2006-02-24 08:55:28 51°9.198 2°36.863 250.9 12.2 247 14
2006-02-24 08:55:33 51°9.192 2°36.838 252.6 12.2 247 14
2006-02-24 08:55:38 51°9.186 2°36.812 252 12.2 248 14.1
2006-02-24 08:55:43 51°9.181 2°36.786 253 12.3 253 14.1
2006-02-24 08:55:48 51°9.176 2°36.761 252.7 12.2 252 14.2
2006-02-24 08:55:53 51°9.171 2°36.735 254.1 12.1 255 14.2
2006-02-24 08:55:58 51°9.167 2°36.709 254.2 12.2 251 14.3
2006-02-24 08:56:03 51°9.161 2°36.684 254.8 11.9 252 14.4
2006-02-24 08:56:08 51°9.156 2°36.659 253.8 12 251 14.4
2006-02-24 08:56:13 51°9.15 2°36.634 252.4 12.2 251 14.4
2006-02-24 08:56:18 51°9.145 2°36.609 251.8 12.1 250 14.5
2006-02-24 08:56:23 51°9.138 2°36.584 251.1 12.1 246 14.4
2006-02-24 08:56:28 51°9.133 2°36.559 249.6 12.2 248 14.4
2006-02-24 08:56:34 51°9.124 2°36.53 251.8 12 253 14.4
2006-02-24 08:56:38 51°9.121 2°36.509 249.2 12.3 244 14.4
2006-02-24 08:56:43 51°9.115 2°36.484 252.4 12.2 255 14.5
2006-02-24 08:56:48 51°9.108 2°36.46 251.6 11.9 245 14.6
2006-02-24 08:56:53 51°9.103 2°36.435 249.6 12.1 252 14.7
2006-02-24 08:56:58 51°9.097 2°36.41 251.8 12.1 248 14.8
2006-02-24 08:57:03 51°9.091 2°36.385 250.6 12.2 251 14.8
2006-02-24 08:57:08 51°9.086 2°36.359 251.6 12.2 250 14.9
2006-02-24 08:57:13 51°9.079 2°36.335 252.2 12.1 250 14.9
2006-02-24 08:57:18 51°9.075 2°36.308 251.1 12.2 252 15
2006-02-24 08:57:23 51°9.069 2°36.283 254 12.3 253 15.1
2006-02-24 08:57:28 51°9.065 2°36.257 252.7 12.4 252 15.1
2006-02-24 08:57:32 51°9.061 2°36.236 255.1 12.2 255 15.3
2006-02-24 08:57:38 51°9.054 2°36.205 252.7 12.2 248 15.3
2006-02-24 08:57:43 51°9.049 2°36.18 252.8 12.4 253 15.4
2006-02-24 08:57:48 51°9.044 2°36.154 253.9 12.1 253 15.5
2006-02-24 08:57:52 51°9.039 2°36.134 252.3 12.1 248 15.6
2006-02-24 08:57:58 51°9.033 2°36.104 254.2 12 256 15.6
2006-02-24 08:58:03 51°9.027 2°36.079 251.5 12 248 15.7
2006-02-24 08:58:08 51°9.021 2°36.054 251 12.1 251 15.7
2006-02-24 08:58:13 51°9.016 2°36.029 251.2 12 251 15.8
2006-02-24 08:58:18 51°9.009 2°36.005 251.4 11.9 249 16
2006-02-24 08:58:23 51°9.004 2°35.98 250.1 12.2 251 16
2006-02-24 08:58:28 51°8.998 2°35.955 251.4 12.1 251 16
2006-02-24 08:58:33 51°8.992 2°35.93 252.4 12 250 16.1
2006-02-24 08:58:38 51°8.987 2°35.904 250.7 12.3 249 16.1
2006-02-24 08:58:43 51°8.982 2°35.879 253 12.1 251 16.2
2006-02-24 08:58:48 51°8.976 2°35.853 253 12.1 251 16.2
2006-02-24 08:58:53 51°8.971 2°35.827 252.7 12.3 253 16.3
2006-02-24 08:58:58 51°8.967 2°35.802 255.1 12 256 16.4
2006-02-24 08:59:03 51°8.961 2°35.777 253.2 11.9 250 16.4
2006-02-24 08:59:08 51°8.957 2°35.751 253.3 12 256 16.6
2006-02-24 08:59:13 51°8.95 2°35.727 253.1 12 245 16.5
2006-02-24 08:59:18 51°8.945 2°35.702 250.7 12.2 249 16.5
2006-02-24 08:59:23 51°8.939 2°35.677 253.4 11.9 252 16.5
2006-02-24 08:59:28 51°8.933 2°35.652 250.3 12.1 247 16.7
2006-02-24 08:59:33 51°8.928 2°35.627 251.9 12.2 253 16.7
2006-02-24 08:59:38 51°8.922 2°35.602 252 12 249 16.9
2006-02-24 08:59:43 51°8.917 2°35.577 251.5 12 251 16.9
2006-02-24 08:59:48 51°8.911 2°35.552 250.7 12 249 16.9
2006-02-24 08:59:53 51°8.905 2°35.527 251.2 12.1 250 17
2006-02-24 08:59:58 51°8.9 2°35.502 251 12.1 250 17.1
2006-02-24 09:00:03 51°8.894 2°35.477 252.2 12 251 17.1
2006-02-24 09:00:08 51°8.889 2°35.451 251.4 12.1 248 17.1
2006-02-24 09:00:13 51°8.883 2°35.426 251.6 12.2 252 17.2
2006-02-24 09:00:18 51°8.878 2°35.4 252.8 12.1 251 17.3
2006-02-24 09:00:23 51°8.872 2°35.375 253.6 12.1 250 17.4
2006-02-24 09:00:28 51°8.868 2°35.349 251.8 12.3 252 17.5
2006-02-24 09:00:33 51°8.863 2°35.323 255.1 12.2 256 17.5
2006-02-24 09:00:38 51°8.858 2°35.298 255 12 251 17.6
2006-02-24 09:00:43 51°8.852 2°35.273 254 12.1 250 17.6
2006-02-24 09:00:48 51°8.848 2°35.247 251.8 12.3 250 17.7
2006-02-24 09:00:53 51°8.842 2°35.222 253.5 12.3 254 17.7
2006-02-24 09:00:58 51°8.837 2°35.196 252.3 12.1 251 17.8
2006-02-24 09:01:03 51°8.831 2°35.17 252.4 12.3 251 17.9
2006-02-24 09:01:08 51°8.826 2°35.145 253.3 12.3 252 17.9
2006-02-24 09:01:14 51°8.821 2°35.114 252.7 12.3 251 18.1
2006-02-24 09:01:18 51°8.816 2°35.094 254.1 12 254 18
2006-02-24 09:01:23 51°8.811 2°35.068 251.9 12.1 248 18.1
2006-02-24 09:01:28 51°8.805 2°35.043 253.5 12 255 18.2
2006-02-24 09:01:33 51°8.8 2°35.018 251.7 12.1 248 18.1
2006-02-24 09:01:38 51°8.794 2°34.993 251.6 12.2 251 18.2
2006-02-24 09:01:43 51°8.788 2°34.967 250.6 12.2 249 18.2
2006-02-24 09:01:48 51°8.783 2°34.942 251.8 12.2 253 18.2
2006-02-24 09:01:53 51°8.777 2°34.917 250.9 12.2 249 18.3
2006-02-24 09:01:58 51°8.771 2°34.892 251.8 12.1 254 18.3
2006-02-24 09:02:03 51°8.765 2°34.866 250.6 12.2 247 18.4
2006-02-24 09:02:08 51°8.76 2°34.841 251.1 12.3 252 18.5
2006-02-24 09:02:13 51°8.754 2°34.816 251.8 12.1 248 18.4
2006-02-24 09:02:18 51°8.749 2°34.79 251 12.4 253 18.3
2006-02-24 09:02:23 51°8.743 2°34.765 253.4 12.1 251 18.4
2006-02-24 09:02:28 51°8.737 2°34.741 252 11.8 249 18.4
2006-02-24 09:02:34 51°8.73 2°34.71 249.7 12.2 247 18.5
2006-02-24 09:02:38 51°8.726 2°34.69 251.1 12.2 252 18.4
2006-02-24 09:02:43 51°8.719 2°34.666 250.6 12.2 247 18.5
2006-02-24 09:02:48 51°8.714 2°34.64 250.4 12.2 252 18.5
2006-02-24 09:02:53 51°8.708 2°34.615 251.4 12.2 250 18.6
2006-02-24 09:02:58 51°8.704 2°34.589 253.3 12.2 254 18.8
2006-02-24 09:03:03 51°8.698 2°34.564 253.4 12.1 250 18.8
2006-02-24 09:03:08 51°8.693 2°34.538 253.2 12.2 252 18.9
2006-02-24 09:03:13 51°8.687 2°34.513 252.2 12.1 251 18.8
2006-02-24 09:03:18 51°8.681 2°34.488 251.8 12 251 18.8
2006-02-24 09:03:23 51°8.674 2°34.464 248.1 12.1 244 18.8
2006-02-24 09:03:28 51°8.666 2°34.44 247.8 12 246 18.8
2006-02-24 09:03:33 51°8.658 2°34.416 245 12.1 240 18.8
2006-02-24 09:03:38 51°8.651 2°34.392 244.5 12.3 244 18.8
2006-02-24 09:03:43 51°8.642 2°34.369 244.4 12.2 240 18.8
2006-02-24 09:03:48 51°8.635 2°34.345 242.5 12.3 241 18.8
2006-02-24 09:03:53 51°8.626 2°34.322 244 12.2 244 18.8
2006-02-24 09:03:58 51°8.618 2°34.297 242 12.4 242 18.7
2006-02-24 09:04:03 51°8.61 2°34.274 243.7 12.2 244 18.8